createdAt,value
2019-05-14T00:02:02.881Z,62.85
2019-05-14T00:04:32.335Z,62.90
2019-05-14T00:07:02.080Z,63.41
2019-05-14T00:09:32.310Z,63.41
2019-05-14T00:12:02.802Z,63.84
2019-05-14T00:14:39.635Z,63.77
2019-05-14T00:17:04.327Z,64.23
2019-05-14T00:19:34.512Z,64.58
2019-05-14T00:22:04.210Z,64.58
2019-05-14T00:24:34.065Z,65.19
2019-05-14T00:27:03.838Z,65.31
2019-05-14T00:29:33.918Z,65.31
2019-05-14T00:32:03.975Z,65.98
2019-05-14T00:34:33.759Z,65.98
2019-05-14T00:37:03.390Z,66.18
2019-05-14T00:39:34.055Z,66.18
2019-05-14T00:42:03.971Z,66.68
2019-05-14T00:44:33.885Z,66.58
2019-05-14T00:47:03.703Z,66.44
2019-05-14T00:49:33.584Z,66.44
2019-05-14T00:52:03.322Z,67.12
2019-05-14T00:54:33.323Z,67.28
2019-05-14T00:57:03.282Z,67.61
2019-05-14T00:59:33.307Z,67.83
2019-05-14T01:02:03.333Z,67.96
2019-05-14T01:04:32.940Z,67.96
2019-05-14T01:07:03.087Z,68.22
2019-05-14T01:09:33.052Z,69.10
2019-05-14T01:12:02.943Z,68.56
2019-05-14T01:14:32.815Z,69.16
2019-05-14T01:17:02.657Z,69.49
2019-05-14T01:19:32.491Z,69.84
2019-05-14T01:22:02.780Z,70.01
2019-05-14T01:24:32.838Z,70.46
2019-05-14T01:27:02.984Z,70.87
2019-05-14T01:29:32.905Z,70.92
2019-05-14T01:32:02.890Z,71.41
2019-05-14T01:34:33.046Z,71.21
2019-05-14T01:37:03.048Z,71.63
2019-05-14T01:39:33.256Z,71.63
2019-05-14T01:42:03.130Z,71.94
2019-05-14T01:44:33.042Z,72.72
2019-05-14T01:47:03.091Z,73.13
2019-05-14T01:49:33.433Z,73.12
2019-05-14T01:52:03.426Z,73.12
2019-05-14T01:54:33.124Z,73.34
2019-05-14T01:57:03.066Z,73.61
2019-05-14T01:59:33.063Z,73.61
2019-05-14T02:02:02.836Z,73.95
2019-05-14T02:04:32.904Z,74.52
2019-05-14T02:07:02.734Z,74.52
2019-05-14T02:09:32.537Z,75.65
2019-05-14T02:12:02.505Z,75.65
2019-05-14T02:14:32.392Z,76.27
2019-05-14T02:17:02.200Z,76.27
2019-05-14T02:19:32.504Z,76.28
2019-05-14T02:22:02.317Z,76.28
2019-05-14T02:24:32.357Z,76.80
2019-05-14T02:27:02.300Z,76.80
2019-05-14T02:29:32.355Z,76.81
2019-05-14T02:32:02.365Z,76.82
2019-05-14T02:34:32.331Z,77.66
2019-05-14T02:37:02.027Z,77.82
2019-05-14T02:39:31.751Z,77.74
2019-05-14T02:42:01.700Z,78.03
2019-05-14T02:44:31.517Z,78.41
2019-05-14T02:47:02.259Z,78.69
2019-05-14T02:49:32.320Z,78.69
2019-05-14T02:52:01.978Z,79.00
2019-05-14T02:54:31.498Z,79.00
2019-05-14T02:57:01.237Z,78.76
2019-05-14T02:59:30.927Z,79.57
2019-05-14T03:02:00.702Z,79.81
2019-05-14T03:04:30.375Z,79.69
2019-05-14T03:07:00.241Z,79.67
2019-05-14T03:09:30.128Z,79.75
2019-05-14T03:12:00.767Z,80.07
2019-05-14T03:14:32.319Z,80.07
2019-05-14T03:17:02.077Z,80.08
2019-05-14T03:19:31.781Z,79.73
2019-05-14T03:22:01.301Z,79.73
2019-05-14T03:24:31.043Z,80.03
2019-05-14T03:27:01.086Z,80.05
2019-05-14T03:29:31.701Z,80.57
2019-05-14T03:32:03.939Z,80.61
2019-05-14T03:34:34.799Z,81.13
2019-05-14T03:37:04.487Z,81.37
2019-05-14T03:39:34.548Z,81.32
2019-05-14T03:42:04.096Z,82.11
2019-05-14T03:44:33.620Z,81.96
2019-05-14T03:47:05.429Z,81.96
2019-05-14T03:49:35.386Z,82.49
2019-05-14T03:52:05.151Z,82.49
2019-05-14T03:54:34.623Z,82.03
2019-05-14T03:57:04.157Z,82.18
2019-05-14T03:59:34.014Z,82.05
2019-05-14T04:02:03.566Z,82.05
2019-05-14T04:04:33.232Z,82.07
2019-05-14T04:07:03.654Z,82.26
2019-05-14T04:09:33.481Z,81.78
2019-05-14T04:12:04.572Z,82.51
2019-05-14T04:14:35.086Z,82.38
2019-05-14T04:17:13.782Z,82.58
2019-05-14T04:19:39.141Z,82.11
2019-05-14T04:22:10.134Z,82.89
2019-05-14T04:24:41.526Z,83.14
2019-05-14T04:27:12.999Z,83.14
2019-05-14T04:29:42.906Z,83.53
2019-05-14T04:32:14.335Z,83.24
2019-05-14T04:34:44.948Z,83.27
2019-05-14T04:37:14.705Z,82.93
2019-05-14T04:39:44.928Z,82.89
2019-05-14T04:42:14.571Z,82.82
2019-05-14T04:44:44.109Z,82.73
2019-05-14T04:47:27.993Z,82.61
2019-05-14T04:49:45.239Z,82.47
2019-05-14T04:52:16.131Z,82.47
2019-05-14T04:54:45.807Z,81.93
2019-05-14T04:57:15.692Z,82.17
2019-05-14T04:59:45.196Z,81.88
2019-05-14T05:02:19.912Z,81.88
2019-05-14T05:04:50.745Z,81.97
2019-05-14T05:07:22.312Z,81.31
2019-05-14T05:09:51.836Z,81.31
2019-05-14T05:12:21.695Z,81.23
2019-05-14T05:14:52.719Z,81.23
2019-05-14T05:17:37.726Z,81.23
2019-05-14T05:19:59.322Z,81.00
2019-05-14T05:22:28.673Z,80.98
2019-05-14T05:24:59.089Z,80.86
2019-05-14T05:27:29.307Z,80.47
2019-05-14T05:29:59.156Z,80.07
2019-05-14T05:32:29.330Z,79.50
2019-05-14T05:34:58.886Z,79.50
2019-05-14T05:37:29.405Z,79.85
2019-05-14T05:40:02.061Z,79.85
2019-05-14T05:42:31.684Z,79.41
2019-05-14T05:45:01.341Z,79.22
2019-05-14T05:47:31.243Z,78.94
2019-05-14T05:50:03.132Z,79.03
2019-05-14T05:52:35.365Z,78.61
2019-05-14T05:55:08.934Z,78.04
2019-05-14T05:57:39.493Z,78.04
2019-05-14T06:00:12.060Z,77.57
2019-05-14T06:02:43.811Z,77.63
2019-05-14T06:05:13.361Z,77.63
2019-05-14T06:07:43.371Z,76.94
2019-05-14T06:10:18.632Z,77.19
2019-05-14T06:12:49.057Z,76.54
2019-05-14T06:15:22.240Z,76.54
2019-05-14T06:17:52.434Z,75.70
2019-05-14T06:20:24.905Z,75.70
2019-05-14T06:22:54.429Z,75.71
2019-05-14T06:25:24.067Z,75.82
2019-05-14T06:27:53.739Z,75.56
2019-05-14T06:33:21.632Z,75.18
2019-05-14T06:35:51.812Z,75.18
2019-05-14T06:40:43.897Z,73.07
2019-05-14T06:43:15.149Z,73.07
2019-05-14T06:45:45.168Z,72.62
2019-05-14T06:48:28.150Z,73.55
2019-05-14T06:50:50.449Z,73.46
2019-05-14T06:53:19.586Z,73.81
2019-05-14T06:55:50.009Z,73.48
2019-05-14T06:58:20.525Z,73.59
2019-05-14T07:00:52.388Z,73.26
2019-05-14T07:03:22.198Z,72.85
2019-05-14T07:05:54.142Z,72.67
2019-05-14T07:08:25.339Z,72.67
2019-05-14T07:10:55.448Z,72.51
2019-05-14T07:13:29.200Z,71.74
2019-05-14T07:15:58.866Z,71.27
2019-05-14T07:18:45.143Z,70.77
2019-05-14T07:21:00.381Z,70.51
2019-05-14T07:23:31.368Z,70.24
2019-05-14T07:26:01.602Z,69.53
2019-05-14T07:28:34.670Z,67.72
2019-05-14T07:31:05.126Z,68.37
2019-05-14T07:33:34.657Z,68.37
2019-05-14T07:36:04.048Z,66.00
2019-05-14T07:38:33.547Z,66.00
2019-05-14T07:41:02.936Z,64.03
2019-05-14T07:43:34.354Z,64.03
2019-05-14T07:46:08.382Z,64.79
2019-05-14T07:48:39.350Z,64.97
2019-05-14T07:51:09.124Z,63.59
2019-05-14T07:53:42.377Z,63.59
2019-05-14T07:56:10.343Z,61.27
2019-05-14T07:58:40.302Z,60.10
2019-05-14T08:01:09.789Z,56.91
2019-05-14T08:03:39.849Z,56.59
2019-05-14T08:06:09.333Z,56.59
2019-05-14T08:08:39.547Z,54.12
2019-05-14T08:11:09.153Z,53.67
2019-05-14T08:13:39.461Z,53.66
2019-05-14T08:16:12.000Z,53.66
2019-05-14T08:18:42.189Z,53.08
2019-05-14T08:21:11.708Z,53.08
2019-05-14T08:23:44.761Z,52.06
2019-05-14T08:26:14.288Z,52.28
2019-05-14T08:28:48.658Z,52.28
2019-05-14T08:31:19.335Z,52.19
2019-05-14T08:33:49.315Z,52.19
2019-05-14T08:36:18.896Z,51.63
2019-05-14T08:38:50.166Z,50.96
2019-05-14T08:41:20.653Z,50.32
2019-05-14T08:43:50.207Z,50.46
2019-05-14T08:46:19.750Z,50.79
2019-05-14T08:48:49.834Z,50.79
2019-05-14T08:51:19.508Z,49.33
2019-05-14T08:53:50.248Z,49.33
2019-05-14T08:56:20.137Z,48.23
2019-05-14T08:58:49.729Z,48.18
2019-05-14T09:01:20.712Z,48.18
2019-05-14T09:03:53.822Z,47.21
2019-05-14T09:06:24.139Z,46.56
2019-05-14T09:08:59.549Z,46.87
2019-05-14T09:11:35.739Z,46.87
2019-05-14T09:13:59.918Z,47.91
2019-05-14T09:16:46.026Z,48.71
2019-05-14T09:19:02.471Z,49.21
2019-05-14T09:21:31.791Z,49.21
2019-05-14T09:24:01.246Z,49.20
2019-05-14T09:26:30.712Z,49.20
2019-05-14T09:29:00.226Z,49.01
2019-05-14T09:31:30.188Z,49.01
2019-05-14T09:33:59.891Z,49.33
2019-05-14T09:36:29.654Z,49.86
2019-05-14T09:38:59.072Z,50.63
2019-05-14T09:41:30.936Z,49.97
2019-05-14T09:44:00.403Z,49.97
2019-05-14T09:46:30.194Z,49.83
2019-05-14T09:49:02.200Z,48.38
2019-05-14T09:51:32.322Z,48.45
2019-05-14T09:54:02.243Z,48.45
2019-05-14T09:56:31.917Z,46.81
2019-05-14T09:59:01.993Z,46.28
2019-05-14T10:01:32.616Z,45.18
2019-05-14T10:04:02.031Z,46.49
2019-05-14T10:06:34.310Z,48.58
2019-05-14T10:09:04.882Z,48.58
2019-05-14T10:11:34.356Z,41.05
2019-05-14T10:14:03.856Z,41.05
2019-05-14T10:16:33.406Z,44.31
2019-05-14T10:19:03.024Z,45.15
2019-05-14T10:21:32.643Z,45.74
2019-05-14T10:24:03.623Z,45.10
2019-05-14T10:26:39.342Z,44.33
2019-05-14T10:29:08.759Z,45.12
2019-05-14T10:31:39.774Z,45.12
2019-05-14T10:34:10.061Z,43.69
2019-05-14T10:36:39.764Z,43.69
2019-05-14T10:39:10.101Z,42.74
2019-05-14T10:41:39.615Z,43.36
2019-05-14T10:44:11.168Z,43.36
2019-05-14T10:46:40.530Z,43.74
2019-05-14T10:49:19.951Z,43.90
2019-05-14T10:51:41.004Z,43.55
2019-05-14T10:54:21.139Z,44.43
2019-05-14T10:56:41.491Z,44.31
2019-05-14T10:59:11.501Z,43.28
2019-05-14T11:01:40.945Z,43.28
2019-05-14T11:04:10.501Z,44.14
2019-05-14T11:06:40.291Z,43.65
2019-05-14T11:09:11.368Z,43.36
2019-05-14T11:11:40.763Z,43.36
2019-05-14T11:14:14.334Z,43.00
2019-05-14T11:16:44.211Z,42.62
2019-05-14T11:19:13.818Z,42.62
2019-05-14T11:21:43.191Z,43.17
2019-05-14T11:24:12.886Z,43.12
2019-05-14T11:26:42.379Z,43.10
2019-05-14T11:29:14.211Z,43.10
2019-05-14T11:31:43.731Z,42.44
2019-05-14T11:34:13.287Z,42.77
2019-05-14T11:36:42.669Z,42.77
2019-05-14T11:39:12.352Z,40.77
2019-05-14T11:41:42.213Z,41.77
2019-05-14T11:44:13.574Z,41.77
2019-05-14T11:46:56.310Z,41.43
2019-05-14T11:49:14.575Z,41.60
2019-05-14T11:52:01.032Z,41.95
2019-05-14T11:54:15.238Z,41.51
2019-05-14T11:56:44.845Z,40.07
2019-05-14T11:59:14.359Z,39.58
2019-05-14T12:01:43.814Z,41.33
2019-05-14T12:04:13.437Z,41.33
2019-05-14T12:06:42.790Z,39.99
2019-05-14T12:09:12.388Z,39.99
2019-05-14T12:11:42.192Z,40.83
2019-05-14T12:14:13.193Z,40.83
2019-05-14T12:16:42.967Z,40.78
2019-05-14T12:19:13.364Z,40.78
2019-05-14T12:21:58.679Z,41.17
2019-05-14T12:24:14.378Z,41.61
2019-05-14T12:26:43.869Z,40.64
2019-05-14T12:29:15.157Z,41.16
2019-05-14T12:31:45.361Z,38.85
2019-05-14T12:34:21.715Z,38.85
2019-05-14T12:36:52.663Z,36.60
2019-05-14T12:39:22.326Z,37.57
2019-05-14T12:41:51.738Z,37.57
2019-05-14T12:44:21.182Z,38.72
2019-05-14T12:46:51.036Z,38.72
2019-05-14T12:49:20.957Z,38.80
2019-05-14T12:51:50.508Z,38.90
2019-05-14T12:54:20.115Z,38.21
2019-05-14T12:56:49.725Z,38.21
2019-05-14T12:59:20.976Z,37.32
2019-05-14T13:01:50.809Z,36.71
2019-05-14T13:04:20.418Z,36.71
2019-05-14T13:06:51.143Z,37.72
2019-05-14T13:09:32.046Z,37.72
2019-05-14T13:12:29.544Z,36.94
2019-05-14T13:14:58.007Z,36.41
2019-05-14T13:17:30.271Z,36.41
2019-05-14T13:20:01.105Z,36.76
2019-05-14T13:22:42.470Z,36.76
2019-05-14T13:25:02.271Z,36.98
2019-05-14T13:27:33.414Z,37.42
2019-05-14T13:30:03.854Z,36.33
2019-05-14T13:32:35.874Z,35.96
2019-05-14T13:35:09.555Z,35.86
2019-05-14T13:37:40.647Z,35.86
2019-05-14T13:40:13.679Z,35.96
2019-05-14T13:42:44.523Z,35.96
2019-05-14T13:45:13.130Z,36.79
2019-05-14T13:47:43.147Z,36.33
2019-05-14T13:50:12.629Z,35.60
2019-05-14T13:53:02.011Z,36.88
2019-05-14T13:55:19.711Z,37.20
2019-05-14T13:57:49.141Z,35.68
2019-05-14T14:00:41.196Z,35.68
2019-05-14T14:03:19.938Z,37.66
2019-05-14T14:05:54.584Z,36.80
2019-05-14T14:08:23.520Z,36.31
2019-05-14T14:11:02.049Z,36.31
2019-05-14T14:13:28.896Z,35.96
2019-05-14T14:15:59.023Z,36.46
2019-05-14T14:18:31.345Z,35.92
2019-05-14T14:21:01.128Z,35.92
2019-05-14T14:23:31.367Z,36.28
2019-05-14T14:26:05.389Z,36.28
2019-05-14T14:28:39.695Z,34.25
2019-05-14T14:31:10.994Z,34.25
2019-05-14T14:33:39.708Z,35.99
2019-05-14T14:36:09.739Z,35.99
2019-05-14T14:38:40.150Z,34.89
2019-05-14T14:41:10.495Z,35.00
2019-05-14T14:43:43.575Z,35.00
2019-05-14T14:46:14.210Z,34.17
2019-05-14T14:48:42.836Z,33.71
2019-05-14T14:51:12.324Z,33.71
2019-05-14T14:53:53.450Z,33.37
2019-05-14T14:56:13.725Z,33.37
2019-05-14T14:58:44.280Z,33.32
2019-05-14T15:01:19.037Z,32.91
2019-05-14T15:03:49.589Z,32.91
2019-05-14T15:06:18.621Z,32.34
2019-05-14T15:08:49.731Z,31.88
2019-05-14T15:11:19.813Z,31.96
2019-05-14T15:13:51.095Z,32.62
2019-05-14T15:16:20.603Z,33.84
2019-05-14T15:18:50.768Z,33.84
2019-05-14T15:21:23.117Z,33.84
2019-05-14T15:24:05.615Z,33.93
2019-05-14T15:26:28.867Z,33.75
2019-05-14T15:28:59.210Z,32.28
2019-05-14T15:31:33.981Z,32.36
2019-05-14T15:34:03.357Z,32.87
2019-05-14T15:36:33.157Z,32.24
2019-05-14T15:39:02.998Z,33.13
2019-05-14T15:41:32.714Z,32.95
2019-05-14T15:44:02.434Z,32.03
2019-05-14T15:46:33.010Z,32.67
2019-05-14T15:49:08.788Z,32.67
2019-05-14T15:51:42.065Z,30.75
2019-05-14T15:54:34.520Z,30.23
2019-05-14T15:56:43.241Z,30.23
2019-05-14T15:59:14.420Z,30.08
2019-05-14T16:01:43.809Z,30.23
2019-05-14T16:04:14.174Z,30.28
2019-05-14T16:06:48.876Z,31.19
2019-05-14T16:09:19.459Z,32.46
2019-05-14T16:11:49.050Z,32.35
2019-05-14T16:14:19.210Z,31.94
2019-05-14T16:16:48.966Z,31.94
2019-05-14T16:19:19.045Z,31.45
2019-05-14T16:21:48.980Z,31.91
2019-05-14T16:24:21.820Z,31.41
2019-05-14T16:26:50.036Z,31.41
2019-05-14T16:29:36.948Z,33.17
2019-05-14T16:31:58.223Z,33.17
2019-05-14T16:34:28.698Z,34.42
2019-05-14T16:37:02.296Z,34.44
2019-05-14T16:39:32.259Z,35.20
2019-05-14T16:42:01.738Z,35.20
2019-05-14T16:44:35.081Z,34.63
2019-05-14T16:47:05.416Z,33.66
2019-05-14T16:49:35.155Z,34.47
2019-05-14T16:52:04.662Z,34.47
2019-05-14T16:54:34.094Z,35.45
2019-05-14T16:57:03.933Z,35.83
2019-05-14T16:59:33.624Z,35.83
2019-05-14T17:02:09.372Z,36.42
2019-05-14T17:04:42.250Z,36.84
2019-05-14T17:07:14.099Z,36.33
2019-05-14T17:09:43.503Z,37.42
2019-05-14T17:12:12.926Z,37.42
2019-05-14T17:14:42.644Z,37.04
2019-05-14T17:19:41.928Z,36.81
2019-05-14T17:22:24.389Z,36.81
2019-05-14T17:24:42.741Z,37.13
2019-05-14T17:27:13.625Z,37.90
2019-05-14T17:29:48.386Z,37.12
2019-05-14T17:32:20.485Z,37.12
2019-05-14T17:34:50.675Z,36.68
2019-05-14T17:37:23.171Z,37.11
2019-05-14T17:39:54.096Z,37.11
2019-05-14T17:42:28.353Z,37.32
2019-05-14T17:44:58.931Z,38.16
2019-05-14T17:47:29.173Z,38.16
2019-05-14T17:49:59.057Z,37.96
2019-05-14T17:52:31.097Z,38.33
2019-05-14T17:55:01.053Z,38.54
2019-05-14T17:57:35.042Z,38.21
2019-05-14T18:00:03.541Z,38.21
2019-05-14T18:02:33.354Z,38.96
2019-05-14T18:05:05.142Z,38.85
2019-05-14T18:07:34.724Z,38.70
2019-05-14T18:10:04.586Z,38.76
2019-05-14T18:12:35.776Z,38.76
2019-05-14T18:15:05.653Z,38.56
2019-05-14T18:17:39.317Z,38.71
2019-05-14T18:20:11.006Z,39.12
2019-05-14T18:22:42.718Z,39.12
2019-05-14T18:25:14.597Z,40.00
2019-05-14T18:27:49.703Z,40.14
2019-05-14T18:30:18.330Z,40.14
2019-05-14T18:32:48.706Z,39.89
2019-05-14T18:35:18.930Z,40.18
2019-05-14T18:37:49.095Z,40.54
2019-05-14T18:40:18.812Z,41.18
2019-05-14T18:42:49.289Z,40.89
2019-05-14T18:45:21.477Z,40.89
2019-05-14T18:47:52.202Z,41.04
2019-05-14T18:50:22.712Z,40.83
2019-05-14T18:52:53.533Z,41.37
2019-05-14T18:55:23.527Z,41.60
2019-05-14T18:57:59.167Z,41.60
2019-05-14T19:00:29.383Z,41.49
2019-05-14T19:03:02.733Z,42.62
2019-05-14T19:05:33.153Z,42.62
2019-05-14T19:08:03.000Z,42.76
2019-05-14T19:10:32.711Z,42.92
2019-05-14T19:13:02.775Z,43.33
2019-05-14T19:15:39.182Z,43.36
2019-05-14T19:18:10.346Z,44.04
2019-05-14T19:20:40.173Z,44.14
2019-05-14T19:23:09.963Z,44.55
2019-05-14T19:25:39.832Z,44.47
2019-05-14T19:28:09.757Z,44.47
2019-05-14T19:30:39.585Z,44.87
2019-05-14T19:33:09.280Z,44.87
2019-05-14T19:35:39.599Z,45.00
2019-05-14T19:38:10.271Z,45.32
2019-05-14T19:40:41.301Z,45.88
2019-05-14T19:43:12.959Z,46.84
2019-05-14T19:45:42.778Z,46.78
2019-05-14T19:48:13.244Z,47.30
2019-05-14T19:50:52.733Z,47.30
2019-05-14T19:53:24.085Z,47.06
2019-05-14T19:55:53.898Z,47.06
2019-05-14T19:58:25.918Z,47.59
2019-05-14T20:00:59.160Z,47.18
2019-05-14T20:03:32.083Z,47.62
2019-05-14T20:06:02.518Z,47.80
2019-05-14T20:08:32.655Z,47.94
2019-05-14T20:11:02.546Z,48.21
2019-05-14T20:13:33.997Z,49.42
2019-05-14T20:16:08.639Z,49.42
2019-05-14T20:18:39.142Z,50.46
2019-05-14T20:21:11.922Z,49.47
2019-05-14T20:23:42.473Z,48.65
2019-05-14T20:26:12.850Z,48.97
2019-05-14T20:28:44.981Z,49.76
2019-05-14T20:31:15.145Z,51.52
2019-05-14T20:33:48.553Z,49.95
2019-05-14T20:36:21.797Z,49.95
2019-05-14T20:38:52.265Z,50.35
2019-05-14T20:41:21.996Z,51.35
2019-05-14T20:43:52.647Z,52.82
2019-05-14T20:46:22.420Z,52.82
2019-05-14T20:48:52.745Z,52.61
2019-05-14T20:51:23.353Z,52.61
2019-05-14T20:53:58.091Z,52.79
2019-05-14T20:56:28.401Z,53.42
2019-05-14T20:58:58.980Z,53.69
2019-05-14T21:01:29.712Z,53.69
2019-05-14T21:03:59.449Z,55.38
2019-05-14T21:06:29.221Z,55.38
2019-05-14T21:09:00.493Z,54.23
2019-05-14T21:11:31.174Z,54.23
2019-05-14T21:14:00.705Z,55.02
2019-05-14T21:16:32.704Z,54.87
2019-05-14T21:19:02.323Z,55.09
2019-05-14T21:21:49.271Z,55.12
2019-05-14T21:24:21.762Z,55.95
2019-05-14T21:26:51.932Z,55.95
2019-05-14T21:29:22.157Z,55.76
2019-05-14T21:31:52.103Z,55.03
2019-05-14T21:34:22.073Z,55.33
2019-05-14T21:36:55.093Z,55.33
2019-05-14T21:39:24.795Z,55.98
2019-05-14T21:41:55.740Z,56.40
2019-05-14T21:44:25.733Z,56.14
2019-05-14T21:46:55.511Z,56.35
2019-05-14T21:49:25.528Z,56.43
2019-05-14T21:51:58.427Z,58.00
2019-05-14T21:54:30.951Z,57.58
2019-05-14T21:56:59.740Z,57.58
2019-05-14T21:59:29.285Z,57.93
2019-05-14T22:01:59.220Z,57.89
2019-05-14T22:04:29.452Z,58.03
2019-05-14T22:06:59.586Z,58.82
2019-05-14T22:09:30.682Z,58.45
2019-05-14T22:12:00.343Z,58.66
2019-05-14T22:14:30.107Z,58.22
2019-05-14T22:17:00.221Z,58.22
2019-05-14T22:19:30.145Z,58.06
2019-05-14T22:22:00.318Z,59.16
2019-05-14T22:24:31.649Z,59.16
2019-05-14T22:27:01.144Z,58.49
2019-05-14T22:29:30.894Z,58.49
2019-05-14T22:32:01.432Z,58.85
2019-05-14T22:34:30.985Z,59.18
2019-05-14T22:37:01.056Z,59.57
2019-05-14T22:39:33.536Z,58.63
2019-05-14T22:42:03.121Z,58.63
2019-05-14T22:44:33.465Z,58.34
2019-05-14T22:47:04.201Z,58.81
2019-05-14T22:49:34.416Z,58.89
2019-05-14T22:52:04.232Z,58.73
2019-05-14T22:54:38.457Z,58.67
2019-05-14T22:57:07.375Z,58.86
2019-05-14T22:59:39.069Z,58.99
2019-05-14T23:02:11.279Z,58.99
2019-05-14T23:04:40.051Z,59.34
2019-05-14T23:07:09.600Z,59.56
2019-05-14T23:09:39.119Z,59.56
2019-05-14T23:12:12.014Z,59.16
2019-05-14T23:14:39.993Z,59.20
2019-05-14T23:17:10.375Z,59.21
2019-05-14T23:19:40.394Z,59.21
2019-05-14T23:22:11.845Z,58.49
2019-05-14T23:24:42.638Z,58.49
2019-05-14T23:27:12.608Z,58.94
2019-05-14T23:29:42.036Z,59.28
2019-05-14T23:32:13.503Z,59.28
2019-05-14T23:34:43.164Z,58.63
2019-05-14T23:37:13.244Z,57.64
2019-05-14T23:39:43.135Z,57.45
2019-05-14T23:42:13.085Z,57.45
2019-05-14T23:44:43.062Z,56.88
2019-05-14T23:47:14.794Z,56.23
2019-05-14T23:49:48.366Z,57.23
2019-05-14T23:52:19.518Z,58.24
2019-05-14T23:54:49.323Z,57.80
2019-05-14T23:57:18.875Z,58.59
2019-05-14T23:59:48.785Z,58.93
